createdAt,value
2018-10-01T00:00:10.847Z,1.50
2018-10-01T00:02:41.006Z,1.50
2018-10-01T00:05:09.952Z,1.33
2018-10-01T00:07:38.877Z,1.80
2018-10-01T00:10:07.324Z,1.60
2018-10-01T00:12:36.196Z,1.53
2018-10-01T00:15:05.272Z,1.43
2018-10-01T00:17:33.844Z,1.30
2018-10-01T00:20:07.822Z,1.37
2018-10-01T00:22:41.927Z,1.50
2018-10-01T00:25:11.066Z,1.37
2018-10-01T00:27:40.357Z,1.23
2018-10-01T00:30:09.520Z,1.50
2018-10-01T00:32:38.482Z,1.40
2018-10-01T00:35:07.814Z,1.20
2018-10-01T00:37:37.508Z,1.17
2018-10-01T00:40:06.498Z,1.40
2018-10-01T00:42:35.813Z,1.60
2018-10-01T00:45:06.022Z,1.27
2018-10-01T00:47:36.157Z,1.40
2018-10-01T00:50:05.736Z,1.20
2018-10-01T00:52:34.610Z,2.03
2018-10-01T00:55:03.919Z,1.40
2018-10-01T00:57:34.784Z,1.13
2018-10-01T01:00:03.661Z,1.00
2018-10-01T01:02:33.255Z,1.43
2018-10-01T01:05:02.770Z,2.00
2018-10-01T01:07:32.219Z,1.87
2018-10-01T01:10:01.408Z,1.60
2018-10-01T01:12:30.191Z,1.67
2018-10-01T01:14:59.587Z,1.40
2018-10-01T01:17:28.724Z,1.20
2018-10-01T01:19:58.826Z,1.27
2018-10-01T01:22:28.521Z,1.30
2018-10-01T01:24:57.670Z,1.60
2018-10-01T01:27:26.437Z,1.77
2018-10-01T01:29:55.220Z,1.53
2018-10-01T01:32:24.817Z,1.50
2018-10-01T01:34:54.442Z,1.00
2018-10-01T01:37:24.711Z,1.00
2018-10-01T01:39:53.753Z,1.23
2018-10-01T01:42:23.686Z,1.40
2018-10-01T01:44:52.452Z,1.10
2018-10-01T01:47:22.630Z,0.80
2018-10-01T01:49:51.528Z,0.90
2018-10-01T01:52:20.041Z,1.20
2018-10-01T01:54:48.666Z,1.17
2018-10-01T01:57:17.190Z,1.30
2018-10-01T01:59:45.685Z,1.30
2018-10-01T02:02:14.602Z,1.03
2018-10-01T02:04:44.040Z,0.90
2018-10-01T02:07:14.029Z,2.07
2018-10-01T02:09:43.335Z,1.10
2018-10-01T02:12:12.408Z,0.77
2018-10-01T02:14:42.534Z,1.20
2018-10-01T02:17:11.287Z,1.20
2018-10-01T02:19:39.966Z,1.03
2018-10-01T02:22:09.864Z,1.40
2018-10-01T02:24:39.032Z,1.17
2018-10-01T02:27:09.351Z,1.10
2018-10-01T02:29:38.658Z,1.27
2018-10-01T02:32:07.187Z,1.23
2018-10-01T02:34:35.604Z,1.60
2018-10-01T02:37:04.043Z,1.03
2018-10-01T02:39:32.808Z,1.37
2018-10-01T02:42:01.505Z,1.40
2018-10-01T02:44:30.223Z,1.40
2018-10-01T02:46:59.223Z,1.00
2018-10-01T02:49:28.095Z,0.97
2018-10-01T02:52:02.396Z,1.47
2018-10-01T02:54:32.928Z,1.13
2018-10-01T02:57:02.737Z,1.03
2018-10-01T02:59:31.294Z,1.10
2018-10-01T03:02:01.031Z,1.30
2018-10-01T03:04:30.008Z,2.10
2018-10-01T03:07:00.084Z,1.00
2018-10-01T03:09:28.897Z,1.20
2018-10-01T03:11:57.699Z,0.70
2018-10-01T03:14:27.286Z,1.20
2018-10-01T03:16:57.073Z,1.17
2018-10-01T03:19:26.007Z,1.27
2018-10-01T03:21:54.690Z,1.30
2018-10-01T03:24:23.406Z,1.17
2018-10-01T03:26:52.638Z,1.20
2018-10-01T03:29:21.465Z,1.40
2018-10-01T03:31:50.876Z,0.93
2018-10-01T03:34:19.645Z,1.10
2018-10-01T03:36:48.254Z,1.13
2018-10-01T03:39:17.094Z,1.27
2018-10-01T03:41:45.844Z,1.60
2018-10-01T03:44:14.517Z,1.00
2018-10-01T03:46:43.431Z,0.80
2018-10-01T03:49:13.117Z,1.00
2018-10-01T03:51:41.970Z,1.17
2018-10-01T03:54:10.677Z,0.90
2018-10-01T03:56:39.332Z,1.50
2018-10-01T03:59:07.900Z,1.37
2018-10-01T04:01:36.563Z,1.50
2018-10-01T04:04:05.918Z,1.20
2018-10-01T04:06:34.799Z,1.00
2018-10-01T04:09:03.624Z,1.20
2018-10-01T04:11:33.067Z,1.00
2018-10-01T04:14:01.904Z,1.40
2018-10-01T04:16:30.639Z,1.10
2018-10-01T04:18:59.499Z,1.00
2018-10-01T04:21:28.144Z,1.20
2018-10-01T04:23:57.099Z,0.80
2018-10-01T04:26:25.974Z,1.17
2018-10-01T04:28:54.480Z,0.70
2018-10-01T04:31:23.047Z,1.13
2018-10-01T04:33:53.024Z,1.50
2018-10-01T04:36:21.914Z,1.30
2018-10-01T04:38:52.793Z,1.43
2018-10-01T04:41:21.286Z,1.17
2018-10-01T04:43:50.013Z,1.00
2018-10-01T04:46:18.637Z,1.00
2018-10-01T04:48:47.377Z,0.60
2018-10-01T04:51:15.793Z,0.60
2018-10-01T04:53:44.707Z,0.80
2018-10-01T04:56:13.433Z,0.57
2018-10-01T04:58:42.000Z,0.70
2018-10-01T05:01:10.399Z,1.03
2018-10-01T05:03:38.899Z,1.00
2018-10-01T05:06:07.972Z,0.80
2018-10-01T05:08:36.540Z,0.87
2018-10-01T05:11:05.218Z,1.40
2018-10-01T05:13:33.748Z,1.20
2018-10-01T05:16:02.212Z,1.23
2018-10-01T05:18:30.839Z,1.30
2018-10-01T05:21:03.185Z,1.13
2018-10-01T05:23:34.168Z,1.00
2018-10-01T05:26:03.126Z,0.93
2018-10-01T05:28:31.839Z,0.60
2018-10-01T05:31:00.361Z,0.73
2018-10-01T05:33:29.786Z,1.13
2018-10-01T05:35:58.663Z,1.10
2018-10-01T05:38:27.529Z,0.93
2018-10-01T05:40:56.232Z,0.80
2018-10-01T05:43:24.955Z,0.80
2018-10-01T05:45:53.825Z,0.83
2018-10-01T05:48:22.421Z,1.63
2018-10-01T05:50:51.593Z,0.70
2018-10-01T05:53:21.963Z,0.90
2018-10-01T05:55:50.560Z,1.13
2018-10-01T05:58:19.231Z,0.60
2018-10-01T06:00:48.196Z,1.13
2018-10-01T06:03:17.190Z,1.50
2018-10-01T06:05:45.857Z,0.93
2018-10-01T06:08:14.801Z,1.20
2018-10-01T06:10:44.530Z,1.13
2018-10-01T06:13:13.129Z,1.00
2018-10-01T06:15:41.974Z,1.20
2018-10-01T06:18:10.883Z,1.27
2018-10-01T06:20:39.519Z,1.13
2018-10-01T06:23:10.026Z,0.80
2018-10-01T06:25:38.804Z,1.53
2018-10-01T06:28:08.106Z,1.33
2018-10-01T06:30:36.774Z,1.00
2018-10-01T06:33:05.424Z,1.20
2018-10-01T06:35:34.098Z,0.73
2018-10-01T06:38:02.888Z,0.83
2018-10-01T06:40:31.488Z,1.50
2018-10-01T06:43:00.090Z,1.27
2018-10-01T06:45:28.729Z,0.93
2018-10-01T06:47:57.512Z,1.30
2018-10-01T06:50:26.450Z,1.03
2018-10-01T06:52:55.064Z,1.10
2018-10-01T06:55:23.753Z,1.53
2018-10-01T06:57:52.750Z,1.10
2018-10-01T07:00:22.163Z,1.47
2018-10-01T07:02:50.895Z,1.17
2018-10-01T07:05:19.649Z,1.13
2018-10-01T07:07:48.364Z,0.93
2018-10-01T07:10:17.105Z,0.90
2018-10-01T07:12:47.060Z,1.00
2018-10-01T07:15:17.404Z,0.80
2018-10-01T07:17:46.693Z,0.80
2018-10-01T07:20:15.783Z,1.10
2018-10-01T07:22:45.551Z,0.67
2018-10-01T07:25:14.499Z,0.97
2018-10-01T07:27:43.874Z,1.80
2018-10-01T07:30:12.919Z,1.97
2018-10-01T07:32:41.600Z,1.03
2018-10-01T07:35:10.186Z,1.27
2018-10-01T07:37:39.037Z,1.67
2018-10-01T07:40:08.166Z,1.47
2018-10-01T07:42:37.513Z,2.80
2018-10-01T07:45:07.759Z,1.57
2018-10-01T07:47:36.712Z,1.47
2018-10-01T07:50:06.312Z,1.63
2018-10-01T07:52:35.900Z,1.43
2018-10-01T07:55:05.114Z,1.20
2018-10-01T07:57:34.751Z,1.57
2018-10-01T08:00:03.658Z,1.27
2018-10-01T08:02:32.292Z,1.37
2018-10-01T08:05:01.044Z,1.57
2018-10-01T08:07:30.629Z,1.67
2018-10-01T08:09:59.371Z,1.47
2018-10-01T08:12:27.910Z,1.40
2018-10-01T08:14:57.475Z,1.53
2018-10-01T08:17:26.750Z,1.40
2018-10-01T08:19:55.577Z,1.30
2018-10-01T08:22:24.512Z,1.27
2018-10-01T08:24:53.045Z,1.70
2018-10-01T08:27:21.994Z,2.37
2018-10-01T08:29:51.007Z,1.80
2018-10-01T08:32:19.682Z,1.97
2018-10-01T08:34:48.158Z,2.67
2018-10-01T08:37:16.787Z,2.30
2018-10-01T08:39:45.233Z,2.00
2018-10-01T08:42:13.904Z,1.47
2018-10-01T08:44:44.570Z,1.87
2018-10-01T08:47:14.174Z,2.17
2018-10-01T08:51:50.557Z,2.43
2018-10-01T08:54:31.420Z,2.23
2018-10-01T08:57:00.215Z,2.50
2018-10-01T08:59:28.785Z,2.30
2018-10-01T09:01:58.463Z,2.63
2018-10-01T09:04:27.113Z,2.70
2018-10-01T09:06:55.677Z,2.50
2018-10-01T09:09:24.931Z,2.30
2018-10-01T09:11:53.555Z,2.20
2018-10-01T09:14:22.321Z,2.67
2018-10-01T09:16:51.438Z,2.30
2018-10-01T09:19:20.115Z,2.70
2018-10-01T09:21:49.045Z,2.23
2018-10-01T09:24:17.474Z,2.27
2018-10-01T09:26:46.378Z,2.67
2018-10-01T09:29:16.065Z,2.17
2018-10-01T09:31:44.766Z,2.27
2018-10-01T09:34:13.157Z,2.50
2018-10-01T09:36:41.852Z,1.83
2018-10-01T09:39:11.156Z,2.47
2018-10-01T09:41:40.252Z,1.93
2018-10-01T09:44:09.827Z,1.70
2018-10-01T09:49:53.630Z,1.60
2018-10-01T09:52:22.419Z,2.20
2018-10-01T09:54:52.197Z,2.10
2018-10-01T09:57:22.286Z,1.90
2018-10-01T09:59:52.401Z,2.13
2018-10-01T10:02:21.427Z,2.63
2018-10-01T10:04:50.669Z,2.57
2018-10-01T10:07:23.594Z,2.37
2018-10-01T10:09:52.241Z,2.03
2018-10-01T10:12:21.135Z,2.50
2018-10-01T10:14:49.488Z,2.30
2018-10-01T10:17:17.793Z,2.07
2018-10-01T10:19:46.256Z,1.80
2018-10-01T10:22:14.518Z,1.67
2018-10-01T10:24:43.220Z,2.10
2018-10-01T10:27:11.746Z,2.67
2018-10-01T10:29:41.025Z,2.23
2018-10-01T10:32:09.551Z,2.63
2018-10-01T10:34:37.819Z,3.07
2018-10-01T10:37:06.136Z,2.50
2018-10-01T10:39:34.607Z,1.67
2018-10-01T10:42:02.952Z,2.00
2018-10-01T10:44:31.367Z,2.00
2018-10-01T10:46:59.916Z,2.00
2018-10-01T10:49:29.274Z,1.87
2018-10-01T10:51:59.358Z,2.23
2018-10-01T10:54:27.867Z,2.30
2018-10-01T10:56:56.998Z,1.80
2018-10-01T10:59:25.829Z,2.10
2018-10-01T11:01:54.515Z,2.13
2018-10-01T11:04:23.581Z,1.97
2018-10-01T11:06:53.849Z,3.03
2018-10-01T11:09:22.920Z,2.03
2018-10-01T11:11:51.782Z,2.40
2018-10-01T11:14:21.794Z,2.00
2018-10-01T11:16:52.348Z,2.37
2018-10-01T11:19:21.729Z,2.60
2018-10-01T11:21:51.410Z,2.47
2018-10-01T11:24:20.730Z,2.30
2018-10-01T11:26:50.048Z,1.70
2018-10-01T11:29:18.718Z,2.50
2018-10-01T11:31:47.514Z,2.33
2018-10-01T11:34:16.220Z,2.07
2018-10-01T11:36:44.866Z,1.90
2018-10-01T11:39:14.254Z,1.83
2018-10-01T11:41:43.094Z,1.77
2018-10-01T11:44:11.773Z,1.77
2018-10-01T11:46:40.486Z,1.63
2018-10-01T11:49:09.089Z,1.93
2018-10-01T11:51:38.497Z,1.60
2018-10-01T11:54:07.831Z,1.87
2018-10-01T11:56:38.266Z,1.93
2018-10-01T11:59:07.713Z,1.70
2018-10-01T12:01:36.985Z,1.90
2018-10-01T12:04:05.350Z,2.50
2018-10-01T12:06:34.169Z,2.40
2018-10-01T12:09:03.067Z,2.17
2018-10-01T12:11:32.768Z,2.00
2018-10-01T12:14:01.449Z,2.10
2018-10-01T12:16:30.136Z,1.57
2018-10-01T12:19:02.442Z,1.90
2018-10-01T12:21:31.281Z,1.47
2018-10-01T12:23:59.956Z,1.90
2018-10-01T12:26:28.610Z,1.40
2018-10-01T12:28:57.339Z,1.50
2018-10-01T12:31:26.286Z,1.10
2018-10-01T12:33:54.843Z,1.40
2018-10-01T12:36:23.815Z,1.33
2018-10-01T12:38:53.085Z,1.73
2018-10-01T12:41:21.954Z,1.50
2018-10-01T12:43:50.430Z,2.20
2018-10-01T12:46:19.040Z,1.80
2018-10-01T12:48:48.003Z,1.70
2018-10-01T12:51:16.721Z,1.80
2018-10-01T12:53:45.722Z,2.20
2018-10-01T12:56:14.567Z,2.13
2018-10-01T12:58:43.213Z,1.80
2018-10-01T13:01:11.880Z,1.87
2018-10-01T13:03:40.532Z,1.77
2018-10-01T13:06:09.392Z,1.80
2018-10-01T13:08:39.030Z,1.70
2018-10-01T13:11:07.461Z,2.07
2018-10-01T13:13:36.193Z,2.20
2018-10-01T13:16:05.221Z,2.10
2018-10-01T13:18:35.574Z,2.13
2018-10-01T13:21:04.116Z,1.90
2018-10-01T13:23:33.081Z,2.43
2018-10-01T13:26:01.921Z,2.57
2018-10-01T13:28:30.866Z,2.20
2018-10-01T13:30:59.710Z,2.07
2018-10-01T13:33:28.435Z,2.50
2018-10-01T13:35:56.982Z,2.10
2018-10-01T13:38:25.944Z,2.20
2018-10-01T13:40:54.637Z,2.63
2018-10-01T13:43:23.367Z,2.37
2018-10-01T13:45:52.295Z,2.17
2018-10-01T13:48:21.145Z,2.47
2018-10-01T13:50:49.892Z,2.13
2018-10-01T13:55:47.298Z,2.37
2018-10-01T13:58:16.019Z,2.13
2018-10-01T14:00:45.272Z,1.80
2018-10-01T14:03:14.677Z,2.00
2018-10-01T14:05:46.538Z,2.17
2018-10-01T14:08:19.521Z,2.27
2018-10-01T14:11:03.101Z,2.20
2018-10-01T14:13:36.585Z,2.13
2018-10-01T14:16:09.501Z,1.80
2018-10-01T14:18:56.024Z,1.50
2018-10-01T14:24:21.885Z,1.53
2018-10-01T14:27:05.103Z,1.70
2018-10-01T14:29:37.855Z,1.93
2018-10-01T14:32:20.886Z,1.63
2018-10-01T14:34:53.748Z,1.50
2018-10-01T14:37:26.277Z,1.63
2018-10-01T14:39:55.738Z,1.90
2018-10-01T14:42:25.640Z,1.77
2018-10-01T14:44:55.238Z,2.47
2018-10-01T14:47:24.497Z,1.70
2018-10-01T14:49:55.780Z,1.67
2018-10-01T14:52:28.168Z,2.13
2018-10-01T14:54:57.320Z,2.87
2018-10-01T14:57:26.418Z,1.77
2018-10-01T14:59:55.527Z,1.97
2018-10-01T15:02:24.827Z,1.90
2018-10-01T15:04:54.098Z,2.07
2018-10-01T15:07:23.247Z,2.33
2018-10-01T15:09:58.884Z,1.60
2018-10-01T15:12:28.381Z,1.43
2018-10-01T15:14:59.890Z,1.53
2018-10-01T15:17:31.429Z,1.80
2018-10-01T15:20:01.094Z,1.70
2018-10-01T15:22:33.593Z,1.67
2018-10-01T15:25:02.731Z,2.13
2018-10-01T15:29:59.753Z,1.40
2018-10-01T15:32:28.380Z,2.60
2018-10-01T15:34:57.409Z,2.57
2018-10-01T15:37:26.182Z,3.70
2018-10-01T15:39:54.879Z,2.07
2018-10-01T15:42:23.878Z,1.90
2018-10-01T15:44:53.035Z,2.03
2018-10-01T15:47:22.734Z,2.00
2018-10-01T15:49:51.581Z,1.97
2018-10-01T15:52:20.405Z,1.70
2018-10-01T15:54:49.322Z,2.07
2018-10-01T15:57:18.928Z,2.23
2018-10-01T15:59:47.523Z,1.43
2018-10-01T16:02:17.381Z,1.70
2018-10-01T16:04:46.005Z,1.93
2018-10-01T16:07:15.991Z,1.70
2018-10-01T16:09:45.311Z,1.37
2018-10-01T16:12:14.925Z,1.40
2018-10-01T16:14:44.506Z,1.63
2018-10-01T16:17:13.319Z,1.70
2018-10-01T16:19:42.126Z,1.80
2018-10-01T16:22:10.871Z,1.40
2018-10-01T16:24:39.545Z,1.10
2018-10-01T16:27:08.340Z,1.70
2018-10-01T16:29:37.144Z,1.60
2018-10-01T16:32:05.880Z,1.60
2018-10-01T16:34:35.340Z,1.40
2018-10-01T16:37:04.431Z,1.43
2018-10-01T16:39:33.023Z,1.43
2018-10-01T16:42:02.732Z,1.97
2018-10-01T16:44:32.637Z,2.47
2018-10-01T16:47:02.469Z,1.50
2018-10-01T16:49:31.460Z,1.47
2018-10-01T16:52:00.509Z,1.57
2018-10-01T16:54:31.254Z,1.43
2018-10-01T16:57:00.537Z,1.37
2018-10-01T16:59:31.032Z,1.17
2018-10-01T17:01:59.807Z,1.20
2018-10-01T17:04:30.640Z,1.70
2018-10-01T17:07:00.479Z,1.60
2018-10-01T17:09:30.579Z,1.90
2018-10-01T17:12:00.199Z,1.60
2018-10-01T17:14:29.369Z,1.57
2018-10-01T17:16:58.108Z,1.30
2018-10-01T17:19:26.938Z,1.90
2018-10-01T17:21:55.522Z,1.93
2018-10-01T17:24:24.282Z,1.90
2018-10-01T17:29:19.755Z,1.90
2018-10-01T17:31:48.324Z,1.60
2018-10-01T17:34:17.006Z,3.13
2018-10-01T17:36:45.533Z,2.10
2018-10-01T17:39:14.520Z,1.60
2018-10-01T17:41:43.081Z,3.20
2018-10-01T17:44:11.776Z,2.00
2018-10-01T17:46:40.378Z,1.47
2018-10-01T17:49:09.032Z,1.53
2018-10-01T17:51:37.427Z,1.07
2018-10-01T17:54:06.091Z,2.00
2018-10-01T17:56:34.651Z,1.80
2018-10-01T17:59:04.292Z,1.40
2018-10-01T18:01:33.016Z,1.33
2018-10-01T18:04:02.130Z,1.80
2018-10-01T18:06:30.606Z,1.67
2018-10-01T18:08:59.478Z,1.60
2018-10-01T18:11:27.970Z,1.27
2018-10-01T18:13:56.729Z,1.77
2018-10-01T18:16:27.649Z,1.70
2018-10-01T18:18:58.087Z,1.90
2018-10-01T18:21:28.354Z,1.87
2018-10-01T18:24:02.843Z,1.43
2018-10-01T18:26:38.112Z,1.60
2018-10-01T18:29:11.893Z,2.00
2018-10-01T18:31:46.190Z,1.90
2018-10-01T18:34:15.559Z,1.23
2018-10-01T18:36:47.741Z,1.13
2018-10-01T18:39:26.664Z,1.60
2018-10-01T18:41:56.247Z,1.60
2018-10-01T18:44:25.956Z,1.50
2018-10-01T18:46:57.094Z,1.53
2018-10-01T18:49:30.560Z,1.10
2018-10-01T18:51:59.696Z,1.50
2018-10-01T18:54:29.573Z,1.67
2018-10-01T18:56:58.663Z,1.23
2018-10-01T18:59:27.377Z,1.63
2018-10-01T19:01:56.539Z,1.80
2018-10-01T19:04:25.554Z,1.77
2018-10-01T19:06:54.048Z,1.37
2018-10-01T19:09:22.585Z,1.23
2018-10-01T19:11:51.496Z,1.53
2018-10-01T19:14:20.037Z,1.87
2018-10-01T19:16:49.735Z,1.70
2018-10-01T19:19:18.402Z,1.90
2018-10-01T19:21:47.247Z,1.13
2018-10-01T19:24:16.044Z,1.40
2018-10-01T19:26:44.745Z,1.63
2018-10-01T19:29:13.727Z,1.47
2018-10-01T19:31:43.549Z,1.33
2018-10-01T19:34:13.251Z,1.50
2018-10-01T19:36:43.020Z,1.63
2018-10-01T19:39:12.693Z,1.63
2018-10-01T19:41:42.819Z,1.70
2018-10-01T19:44:13.365Z,1.80
2018-10-01T19:46:43.047Z,2.00
2018-10-01T19:49:11.959Z,1.80
2018-10-01T19:51:41.082Z,1.57
2018-10-01T19:54:10.514Z,1.67
2018-10-01T19:56:40.460Z,1.13
2018-10-01T19:59:09.865Z,1.43
2018-10-01T20:01:39.734Z,1.50
2018-10-01T20:04:08.670Z,1.70
2018-10-01T20:06:38.796Z,1.60
2018-10-01T20:09:10.366Z,1.70
2018-10-01T20:11:39.664Z,1.70
2018-10-01T20:14:09.694Z,1.30
2018-10-01T20:16:39.610Z,1.43
2018-10-01T20:19:10.035Z,1.77
2018-10-01T20:21:39.808Z,1.70
2018-10-01T20:24:09.222Z,1.90
2018-10-01T20:26:38.262Z,1.87
2018-10-01T20:29:10.110Z,2.33
2018-10-01T20:31:39.461Z,2.40
2018-10-01T20:34:09.661Z,1.90
2018-10-01T20:36:39.700Z,1.90
2018-10-01T20:39:10.623Z,2.23
2018-10-01T20:41:40.240Z,1.97
2018-10-01T20:44:09.260Z,1.47
2018-10-01T20:46:38.445Z,1.87
2018-10-01T20:49:07.707Z,2.10
2018-10-01T20:51:38.956Z,1.60
2018-10-01T20:54:07.722Z,1.20
2018-10-01T20:56:36.969Z,1.50
2018-10-01T20:59:05.958Z,1.80
2018-10-01T21:01:35.101Z,0.90
2018-10-01T21:04:04.038Z,1.70
2018-10-01T21:06:32.747Z,1.17
2018-10-01T21:09:01.414Z,1.30
2018-10-01T21:11:30.376Z,1.47
2018-10-01T21:13:59.627Z,1.50
2018-10-01T21:16:30.184Z,1.30
2018-10-01T21:18:59.460Z,1.10
2018-10-01T21:21:28.764Z,1.20
2018-10-01T21:23:58.162Z,1.53
2018-10-01T21:26:27.322Z,1.27
2018-10-01T21:28:56.219Z,1.13
2018-10-01T21:31:25.263Z,1.40
2018-10-01T21:33:54.087Z,1.33
2018-10-01T21:36:23.633Z,1.10
2018-10-01T21:38:52.561Z,1.10
2018-10-01T21:41:21.296Z,1.60
2018-10-01T21:43:50.275Z,1.00
2018-10-01T21:46:19.235Z,1.30
2018-10-01T21:48:48.439Z,1.10
2018-10-01T21:51:17.405Z,1.47
2018-10-01T21:53:46.056Z,1.40
2018-10-01T21:56:15.046Z,1.07
2018-10-01T21:58:43.587Z,1.20
2018-10-01T22:01:17.679Z,1.03
2018-10-01T22:03:46.878Z,1.20
2018-10-01T22:06:15.484Z,1.27
2018-10-01T22:08:43.997Z,1.10
2018-10-01T22:11:12.461Z,0.90
2018-10-01T22:13:41.191Z,1.30
2018-10-01T22:16:11.116Z,1.20
2018-10-01T22:18:42.879Z,1.87
2018-10-01T22:21:11.487Z,1.80
2018-10-01T22:23:46.481Z,1.00
2018-10-01T22:26:17.493Z,1.33
2018-10-01T22:28:47.421Z,1.50
2018-10-01T22:31:18.603Z,1.40
2018-10-01T22:33:48.437Z,1.40
2018-10-01T22:36:17.869Z,1.20
2018-10-01T22:38:47.216Z,1.20
2018-10-01T22:41:16.495Z,1.50
2018-10-01T22:43:46.323Z,1.53
2018-10-01T22:46:16.423Z,1.57
2018-10-01T22:48:45.234Z,1.20
2018-10-01T22:51:16.361Z,1.43
2018-10-01T22:53:46.209Z,1.63
2018-10-01T22:56:15.088Z,1.03
2018-10-01T22:58:44.667Z,1.57
2018-10-01T23:01:14.717Z,0.80
2018-10-01T23:03:43.801Z,1.30
2018-10-01T23:06:12.297Z,1.40
2018-10-01T23:08:41.162Z,1.17
2018-10-01T23:11:14.298Z,1.20
2018-10-01T23:13:43.351Z,1.17
2018-10-01T23:16:12.473Z,1.43
2018-10-01T23:18:41.124Z,1.47
2018-10-01T23:21:10.012Z,1.53
2018-10-01T23:23:38.608Z,1.90
2018-10-01T23:26:07.205Z,1.07
2018-10-01T23:28:35.822Z,1.40
2018-10-01T23:31:05.552Z,1.40
2018-10-01T23:33:33.989Z,1.57
2018-10-01T23:36:02.712Z,1.40
2018-10-01T23:38:32.312Z,1.53
2018-10-01T23:41:00.866Z,1.40
2018-10-01T23:43:29.538Z,1.30
2018-10-01T23:45:59.195Z,1.33
2018-10-01T23:48:28.055Z,1.13
2018-10-01T23:50:56.857Z,1.37
2018-10-01T23:53:25.691Z,1.50
2018-10-01T23:55:54.395Z,1.30
2018-10-01T23:58:23.065Z,1.43
